Peoria, North Carolina
Current Conditions -  °F | °C
As of 9:55 AM on Saturday 01 Nov 2014 (Local Time) from KTNB Reporting Station
Light Snow Light Snow  
Wind Chill: 22°   Ceiling: 700
Heat Index: 31°   Visibility: 1.5mi
Dew Point: 28°   Wind: 12mph
Humidity: 90%   Direction: 320°NW
Pressure: 29.83"   Gusts: NA
Location:  36.2666°N, 81.8431°W
Report Text: KTNB 011355Z AUTO 32010KT 1 1/2SM -SN VV007 00/M02 A2983 RMK AO2 T10051020
Loading
Personal Weather Stations






























Interactive Weather Map
Tropical Storm Tracking
New forecast layout! Learn more

10-Day Weather Forecast

Advertisements
Track Severe Weather on mobile